Time;durP1;ratioP1;P1;durP2;ratioP2;P2;SDS_P1;SDS_P2;PMS_P1;PMS_P2;Temp;Humidity;BMP_temperature;BMP_pressure;BME280_temperature;BME280_humidity;BME280_pressure;Samples;Min_cycle;Max_cycle;Signal;HPM_P1;HPM_P2
2021/12/03 00:02:15;;;;;;;19.75;12.80;;;-0.50;97.60;;;;;;5016171;28;20030;-76
2021/12/03 00:04:41;;;;;;;19.55;12.68;;;-0.60;97.30;;;;;;5013281;28;20038;-75
2021/12/03 00:07:07;;;;;;;25.88;13.52;;;-0.60;97.00;;;;;;5017915;28;20091;-76
2021/12/03 00:09:35;;;;;;;23.88;14.30;;;-0.60;97.10;;;;;;5010830;28;20025;-76
2021/12/03 00:12:04;;;;;;;23.45;15.05;;;-0.70;97.20;;;;;;5012669;28;20026;-77
2021/12/03 00:14:30;;;;;;;22.65;12.90;;;-0.80;96.80;;;;;;5004876;28;20157;-76
2021/12/03 00:16:55;;;;;;;22.05;12.10;;;-0.80;96.40;;;;;;5018111;28;20426;-75
2021/12/03 00:19:21;;;;;;;24.77;13.13;;;-0.80;96.50;;;;;;5017612;28;20056;-77
2021/12/03 00:21:47;;;;;;;25.20;12.82;;;-0.80;96.10;;;;;;5017595;28;20423;-77
2021/12/03 00:24:13;;;;;;;20.85;13.55;;;-0.80;96.10;;;;;;5015408;28;20025;-75
2021/12/03 00:26:39;;;;;;;24.55;11.45;;;-0.90;96.00;;;;;;5007213;28;20049;-77
2021/12/03 00:29:05;;;;;;;18.10;10.90;;;-0.80;95.80;;;;;;5013149;28;20045;-77
2021/12/03 00:31:31;;;;;;;17.27;10.85;;;-0.80;95.30;;;;;;5014882;28;20314;-78
2021/12/03 00:33:56;;;;;;;16.88;10.18;;;-0.80;95.80;;;;;;5015042;28;20026;-77
2021/12/03 00:36:23;;;;;;;21.10;11.27;;;-0.80;96.20;;;;;;5017664;28;20389;-77
2021/12/03 00:38:54;;;;;;;19.25;11.82;;;-0.80;96.30;;;;;;5013446;28;20322;-79
2021/12/03 00:41:21;;;;;;;22.50;13.80;;;-0.90;96.20;;;;;;5015906;28;20418;-76
2021/12/03 00:43:51;;;;;;;19.45;12.95;;;-0.90;96.30;;;;;;5016693;28;20114;-77
2021/12/03 00:46:21;;;;;;;19.75;13.23;;;-1.00;96.00;;;;;;5011241;28;20373;-76
2021/12/03 00:48:50;;;;;;;26.10;13.07;;;-1.00;95.90;;;;;;5008280;28;20018;-76
2021/12/03 00:51:18;;;;;;;20.35;11.48;;;-0.90;95.50;;;;;;5002919;28;20050;-76
2021/12/03 00:53:44;;;;;;;21.08;11.55;;;-1.00;95.80;;;;;;5002199;28;20084;-77
2021/12/03 00:56:11;;;;;;;20.52;11.38;;;-1.00;95.80;;;;;;5014190;28;20080;-77
2021/12/03 00:58:37;;;;;;;19.08;11.35;;;-1.00;95.60;;;;;;5010214;28;20057;-77
2021/12/03 01:01:05;;;;;;;24.23;13.55;;;-1.00;95.50;;;;;;5007822;28;20030;-77
2021/12/03 01:03:31;;;;;;;18.10;11.20;;;-1.00;95.70;;;;;;5010686;28;20053;-77
2021/12/03 01:05:57;;;;;;;20.95;12.00;;;-1.00;95.30;;;;;;5013351;28;20026;-76
2021/12/03 01:08:23;;;;;;;18.58;12.65;;;-1.00;95.30;;;;;;5005609;28;20018;-77
2021/12/03 01:10:49;;;;;;;19.42;12.05;;;-0.90;95.20;;;;;;5009529;28;20076;-77
2021/12/03 01:13:15;;;;;;;24.20;12.32;;;-0.90;95.40;;;;;;5010750;28;20035;-77
2021/12/03 01:15:41;;;;;;;22.65;13.18;;;-0.80;95.40;;;;;;5013667;28;20053;-77
2021/12/03 01:18:09;;;;;;;20.80;13.10;;;-0.80;95.20;;;;;;5008219;28;20037;-76
2021/12/03 01:20:36;;;;;;;19.75;11.80;;;-0.70;95.10;;;;;;5007554;28;20113;-75
2021/12/03 01:23:03;;;;;;;19.27;11.23;;;-0.70;95.50;;;;;;5001447;28;20380;-76
2021/12/03 01:25:31;;;;;;;20.23;12.45;;;-0.70;95.50;;;;;;5000028;28;20057;-76
2021/12/03 01:27:59;;;;;;;20.05;13.32;;;-0.70;95.40;;;;;;4998131;28;20022;-77
2021/12/03 01:30:26;;;;;;;18.38;11.70;;;-0.70;95.60;;;;;;4998371;28;20320;-76
2021/12/03 01:32:52;;;;;;;19.92;11.73;;;-0.70;95.70;;;;;;5007198;28;20351;-77
2021/12/03 01:35:19;;;;;;;21.70;12.50;;;-0.70;95.60;;;;;;5003083;28;20149;-76
2021/12/03 01:37:46;;;;;;;21.65;11.48;;;-0.70;95.60;;;;;;5007991;28;20300;-75
2021/12/03 01:40:16;;;;;;;18.02;11.38;;;-0.60;95.60;;;;;;5005969;28;20309;-75
2021/12/03 01:42:45;;;;;;;18.65;11.75;;;-0.70;95.80;;;;;;5005203;28;20534;-75
2021/12/03 01:45:14;;;;;;;17.50;11.80;;;-0.70;96.10;;;;;;5009105;28;20029;-75
2021/12/03 01:47:44;;;;;;;18.15;12.07;;;-0.70;96.20;;;;;;5010777;28;20014;-77
2021/12/03 01:50:12;;;;;;;18.20;11.57;;;-0.70;96.30;;;;;;5002212;28;20037;-77
2021/12/03 01:52:38;;;;;;;17.25;10.40;;;-0.70;95.60;;;;;;4997439;28;21575;-78
2021/12/03 01:55:08;;;;;;;19.80;11.52;;;-0.60;96.30;;;;;;5013467;28;20113;-77
2021/12/03 01:57:34;;;;;;;18.98;11.07;;;-0.60;96.60;;;;;;5002875;28;20100;-77
2021/12/03 02:00:00;;;;;;;18.80;11.98;;;-0.60;96.60;;;;;;5008234;28;20439;-77
2021/12/03 02:02:26;;;;;;;19.98;12.13;;;-0.60;96.70;;;;;;4998735;28;20045;-78
2021/12/03 02:04:52;;;;;;;17.75;11.32;;;-0.60;96.70;;;;;;5002239;28;20155;-77
2021/12/03 02:07:19;;;;;;;16.15;11.38;;;-0.60;97.10;;;;;;5003866;28;20423;-77
2021/12/03 02:09:45;;;;;;;14.48;9.55;;;-0.70;96.80;;;;;;5002972;28;20036;-77
2021/12/03 02:12:11;;;;;;;15.27;9.85;;;-0.70;96.80;;;;;;5005129;28;20518;-77
2021/12/03 02:14:37;;;;;;;17.52;11.10;;;-0.70;96.60;;;;;;4999469;28;20034;-77
2021/12/03 02:17:03;;;;;;;19.80;11.18;;;-0.70;97.00;;;;;;4996311;28;20026;-77
2021/12/03 02:19:29;;;;;;;20.10;12.32;;;-0.70;96.90;;;;;;5002486;28;20034;-76
2021/12/03 02:21:55;;;;;;;18.73;11.15;;;-0.80;96.70;;;;;;5002624;28;20036;-77
2021/12/03 02:24:21;;;;;;;22.05;12.60;;;-0.80;96.50;;;;;;5002002;28;20023;-75
2021/12/03 02:26:48;;;;;;;18.08;11.82;;;-0.80;96.40;;;;;;5012832;28;20034;-77
2021/12/03 02:29:13;;;;;;;21.95;12.93;;;-0.80;96.30;;;;;;5010365;28;20029;-76
2021/12/03 02:31:39;;;;;;;22.63;13.40;;;-0.80;95.80;;;;;;5005474;28;20030;-77
2021/12/03 02:34:05;;;;;;;23.10;14.05;;;-0.80;96.20;;;;;;5005770;28;20379;-76
2021/12/03 02:36:31;;;;;;;24.13;13.55;;;-0.80;96.00;;;;;;5013301;28;20026;-77
2021/12/03 02:38:57;;;;;;;22.95;13.70;;;-0.90;95.90;;;;;;5018174;28;20022;-77
2021/12/03 02:41:22;;;;;;;21.75;13.02;;;-0.90;95.90;;;;;;5017294;28;20359;-76
2021/12/03 02:43:49;;;;;;;24.45;14.07;;;-0.90;95.60;;;;;;5011378;28;20029;-76
2021/12/03 02:46:14;;;;;;;23.30;13.48;;;-0.90;95.80;;;;;;5005388;28;20030;-76
2021/12/03 02:48:40;;;;;;;27.00;14.63;;;-0.90;95.60;;;;;;5013198;28;20026;-76
2021/12/03 02:51:09;;;;;;;22.90;14.20;;;-1.00;95.60;;;;;;5018664;28;20429;-76
2021/12/03 02:53:36;;;;;;;24.73;13.32;;;-1.00;95.60;;;;;;5009813;28;20038;-78
2021/12/03 02:56:02;;;;;;;22.70;13.55;;;-1.00;95.60;;;;;;5008905;28;20030;-77
2021/12/03 02:58:28;;;;;;;19.83;12.23;;;-1.10;95.50;;;;;;5000564;28;20109;-76
2021/12/03 03:00:55;;;;;;;19.88;12.98;;;-1.20;95.30;;;;;;5000848;28;20117;-78
2021/12/03 03:03:21;;;;;;;22.13;13.45;;;-1.20;95.40;;;;;;5015062;28;20149;-76
2021/12/03 03:05:58;;;;;;;21.00;13.93;;;-1.20;95.40;;;;;;5017043;28;20429;-76
2021/12/03 03:08:25;;;;;;;22.27;12.57;;;-1.20;95.70;;;;;;5014332;28;20157;-76
2021/12/03 03:10:52;;;;;;;23.63;13.10;;;-1.30;94.90;;;;;;5015096;28;20030;-77
2021/12/03 03:13:18;;;;;;;22.80;13.38;;;-1.30;95.60;;;;;;5007420;28;20092;-76
2021/12/03 03:15:44;;;;;;;25.90;13.77;;;-1.30;95.40;;;;;;5015026;28;20121;-76
2021/12/03 03:18:15;;;;;;;21.27;12.68;;;-1.40;94.80;;;;;;5016465;28;20359;-76
2021/12/03 03:20:43;;;;;;;21.45;11.77;;;-1.30;95.00;;;;;;5001047;28;20058;-77
2021/12/03 03:23:09;;;;;;;18.38;11.30;;;-1.30;94.90;;;;;;5015168;28;20089;-76
2021/12/03 03:25:36;;;;;;;25.95;13.25;;;-1.30;95.50;;;;;;5001543;28;20037;-76
2021/12/03 03:28:02;;;;;;;19.90;12.05;;;-1.40;96.20;;;;;;4999669;28;20026;-77
2021/12/03 03:30:28;;;;;;;19.65;12.18;;;-1.50;95.60;;;;;;4998417;28;20120;-77
2021/12/03 03:32:54;;;;;;;23.08;12.40;;;-1.50;95.10;;;;;;4998781;28;20125;-76
2021/12/03 03:35:20;;;;;;;25.50;13.93;;;-1.50;95.90;;;;;;5007728;28;20029;-76
2021/12/03 03:37:46;;;;;;;29.17;16.13;;;-1.60;95.70;;;;;;5014059;28;20108;-76
2021/12/03 03:40:12;;;;;;;19.63;11.00;;;-1.70;95.70;;;;;;5003936;28;20027;-77
2021/12/03 03:42:38;;;;;;;19.48;11.07;;;-1.70;95.20;;;;;;5010670;28;20079;-76
2021/12/03 03:45:09;;;;;;;15.35;9.75;;;-1.70;95.20;;;;;;5003452;28;20439;-78
2021/12/03 03:47:37;;;;;;;17.70;11.25;;;-1.70;96.00;;;;;;5015373;28;20034;-76
2021/12/03 03:50:03;;;;;;;17.92;11.18;;;-1.80;96.40;;;;;;5007455;28;20061;-77
2021/12/03 03:52:29;;;;;;;16.83;10.48;;;-1.90;96.30;;;;;;5008147;28;20033;-77
2021/12/03 03:54:55;;;;;;;14.13;9.13;;;-1.90;96.40;;;;;;5004782;28;20034;-76
2021/12/03 03:57:21;;;;;;;17.92;10.88;;;-2.00;96.50;;;;;;5000451;28;20034;-76
2021/12/03 03:59:47;;;;;;;17.10;9.30;;;-2.00;96.70;;;;;;5013307;28;20034;-77
2021/12/03 04:02:13;;;;;;;20.23;10.32;;;-2.00;97.00;;;;;;5007859;28;20026;-77
2021/12/03 04:04:39;;;;;;;14.65;10.10;;;-2.10;97.10;;;;;;4998458;28;20023;-77
2021/12/03 04:07:04;;;;;;;18.38;11.05;;;-2.10;97.10;;;;;;4998481;28;20022;-77
2021/12/03 04:09:30;;;;;;;17.40;10.10;;;-2.10;97.10;;;;;;4997371;28;20034;-77
2021/12/03 04:11:56;;;;;;;15.85;10.68;;;-2.10;96.60;;;;;;4998860;28;20364;-76
2021/12/03 04:14:21;;;;;;;16.45;9.50;;;-2.10;97.30;;;;;;5001145;28;20038;-76
2021/12/03 04:16:48;;;;;;;19.23;11.57;;;-2.00;96.40;;;;;;5017022;28;20044;-77
2021/12/03 04:19:14;;;;;;;19.23;12.50;;;-2.00;97.30;;;;;;5011387;28;20328;-75
2021/12/03 04:21:39;;;;;;;18.70;10.68;;;-2.00;97.40;;;;;;5008416;28;20034;-77
2021/12/03 04:24:06;;;;;;;17.67;9.98;;;-1.90;96.70;;;;;;5016701;28;20022;-76
2021/12/03 04:26:32;;;;;;;17.95;9.57;;;-1.80;97.50;;;;;;5003677;28;20123;-77
2021/12/03 04:28:58;;;;;;;15.70;10.23;;;-1.70;97.80;;;;;;5014749;28;20066;-77
2021/12/03 04:31:24;;;;;;;15.70;9.32;;;-1.70;98.00;;;;;;4999567;28;20026;-75
2021/12/03 04:33:50;;;;;;;16.35;9.40;;;-1.60;98.00;;;;;;4996843;28;20431;-75
2021/12/03 04:36:16;;;;;;;13.70;9.23;;;-1.60;98.00;;;;;;5005958;28;20035;-75
2021/12/03 04:38:41;;;;;;;19.90;10.98;;;-1.60;98.00;;;;;;5012606;28;20029;-74
2021/12/03 04:41:08;;;;;;;18.02;10.57;;;-1.60;98.00;;;;;;5025130;28;20504;-75
2021/12/03 04:43:33;;;;;;;16.17;10.05;;;-1.60;98.00;;;;;;5007259;28;20036;-76
2021/12/03 04:45:59;;;;;;;16.15;10.40;;;-1.60;98.00;;;;;;4996985;28;20716;-77
2021/12/03 04:48:25;;;;;;;17.38;11.00;;;-1.60;98.00;;;;;;5001456;28;20117;-76
2021/12/03 04:50:53;;;;;;;18.63;10.68;;;-1.70;98.00;;;;;;5002829;28;20292;-77
2021/12/03 04:53:19;;;;;;;16.63;10.23;;;-1.70;98.00;;;;;;5004840;28;20096;-77
2021/12/03 04:55:47;;;;;;;18.15;10.98;;;-1.70;98.00;;;;;;5017390;28;20109;-77
2021/12/03 04:58:12;;;;;;;18.85;11.02;;;-1.80;98.00;;;;;;5016616;28;20032;-76
2021/12/03 05:00:45;;;;;;;18.60;12.32;;;-1.80;98.00;;;;;;5017316;28;20104;-76
2021/12/03 05:03:11;;;;;;;17.30;10.15;;;-1.80;98.00;;;;;;5008239;28;20026;-76
2021/12/03 05:05:38;;;;;;;18.33;10.88;;;-1.80;98.00;;;;;;5010840;28;20477;-76
2021/12/03 05:08:07;;;;;;;15.93;10.40;;;-1.80;98.00;;;;;;5005857;28;20030;-75
2021/12/03 05:10:37;;;;;;;16.90;9.27;;;-1.80;98.00;;;;;;5004845;28;20093;-75
2021/12/03 05:13:09;;;;;;;22.40;11.57;;;-1.80;98.00;;;;;;5002485;28;20030;-76
2021/12/03 05:15:39;;;;;;;16.02;9.93;;;-1.70;98.00;;;;;;5010449;28;20080;-75
2021/12/03 05:18:06;;;;;;;15.30;9.52;;;-1.70;98.00;;;;;;5015196;28;20030;-76
2021/12/03 05:20:33;;;;;;;15.60;9.13;;;-1.70;98.00;;;;;;5002100;28;20481;-76
2021/12/03 05:22:59;;;;;;;18.88;10.35;;;-1.70;98.00;;;;;;5004337;28;20022;-76
2021/12/03 05:25:25;;;;;;;17.08;10.30;;;-1.70;98.00;;;;;;5003449;28;20044;-75
2021/12/03 05:27:52;;;;;;;16.02;9.13;;;-1.80;98.00;;;;;;5002599;28;20384;-75
2021/12/03 05:30:18;;;;;;;17.75;10.60;;;-1.80;98.00;;;;;;5009389;28;20029;-75
2021/12/03 05:32:44;;;;;;;17.35;10.40;;;-1.90;98.00;;;;;;5008554;28;20069;-76
2021/12/03 05:35:10;;;;;;;15.82;9.85;;;-1.90;98.00;;;;;;5005529;28;20375;-77
2021/12/03 05:37:36;;;;;;;13.82;8.25;;;-1.90;98.00;;;;;;5009560;28;20091;-75
2021/12/03 05:40:04;;;;;;;16.02;7.78;;;-1.90;98.00;;;;;;5009302;28;20379;-76
2021/12/03 05:42:30;;;;;;;13.57;8.48;;;-1.90;98.00;;;;;;5004731;28;20022;-76
2021/12/03 05:44:57;;;;;;;14.90;8.48;;;-1.90;98.00;;;;;;5000768;28;20422;-75
2021/12/03 05:47:24;;;;;;;16.67;9.15;;;-1.90;98.00;;;;;;5013480;28;20021;-76
2021/12/03 05:49:52;;;;;;;14.52;9.13;;;-2.00;98.00;;;;;;5011823;28;20017;-76
2021/12/03 05:52:18;;;;;;;17.63;10.60;;;-2.10;98.00;;;;;;5010079;28;20033;-76
2021/12/03 05:54:45;;;;;;;15.43;9.50;;;-2.10;98.00;;;;;;5017956;28;20096;-76
2021/12/03 05:57:11;;;;;;;16.20;9.27;;;-2.10;98.00;;;;;;5015292;28;20054;-77
2021/12/03 05:59:37;;;;;;;18.73;9.38;;;-2.10;98.00;;;;;;5012162;28;20131;-75
2021/12/03 06:02:03;;;;;;;17.42;9.88;;;-2.00;98.00;;;;;;5008905;28;20373;-81
2021/12/03 06:04:29;;;;;;;16.60;9.30;;;-2.00;98.00;;;;;;4997905;28;20101;-76
2021/12/03 06:06:55;;;;;;;15.75;9.05;;;-2.00;98.00;;;;;;5005187;28;20030;-76
2021/12/03 06:09:21;;;;;;;13.25;8.18;;;-2.00;98.00;;;;;;4997511;28;20323;-75
2021/12/03 06:11:47;;;;;;;17.73;9.40;;;-1.90;98.00;;;;;;5004797;28;20370;-76
2021/12/03 06:14:12;;;;;;;15.15;8.80;;;-1.80;98.00;;;;;;4996538;28;20027;-76
2021/12/03 06:16:38;;;;;;;17.13;10.85;;;-1.80;98.00;;;;;;4996559;28;20034;-76
2021/12/03 06:19:04;;;;;;;21.25;12.52;;;-1.70;98.00;;;;;;5008252;28;20034;-76
2021/12/03 06:21:29;;;;;;;19.35;11.43;;;-1.70;98.00;;;;;;5015892;28;20034;-77
2021/12/03 06:23:55;;;;;;;20.33;11.98;;;-1.70;98.00;;;;;;5015105;28;20026;-77
2021/12/03 06:26:21;;;;;;;22.83;13.13;;;-1.70;98.00;;;;;;5013764;28;20046;-77
2021/12/03 06:28:47;;;;;;;16.83;10.18;;;-1.70;98.00;;;;;;5006517;28;20034;-77
2021/12/03 06:31:13;;;;;;;16.75;10.55;;;-1.70;98.00;;;;;;4996455;28;20365;-76
2021/12/03 06:33:38;;;;;;;16.92;10.60;;;-1.70;98.00;;;;;;5014528;28;20537;-76
2021/12/03 06:36:04;;;;;;;17.40;10.13;;;-1.70;98.00;;;;;;5015126;28;20073;-77
2021/12/03 06:38:31;;;;;;;17.05;9.00;;;-1.70;98.00;;;;;;5014141;28;20026;-76
2021/12/03 06:40:57;;;;;;;17.30;9.43;;;-1.70;98.00;;;;;;5014155;28;20426;-77
2021/12/03 06:43:23;;;;;;;17.45;9.70;;;-1.70;98.00;;;;;;5014915;28;20061;-77
2021/12/03 06:45:49;;;;;;;17.60;10.25;;;-1.70;98.00;;;;;;5015881;28;20029;-77
2021/12/03 06:48:16;;;;;;;17.48;10.45;;;-1.80;98.00;;;;;;5013662;28;20029;-77
2021/12/03 06:50:44;;;;;;;16.95;10.27;;;-1.90;98.00;;;;;;5015836;28;20033;-76
2021/12/03 06:53:12;;;;;;;16.42;9.65;;;-1.90;98.00;;;;;;5014159;28;20029;-75
2021/12/03 06:55:46;;;;;;;16.20;8.77;;;-1.90;98.00;;;;;;5015875;28;20017;-77
2021/12/03 06:58:14;;;;;;;14.50;9.30;;;-1.90;98.00;;;;;;5015096;28;20485;-77
2021/12/03 07:00:40;;;;;;;15.02;9.90;;;-1.80;98.00;;;;;;5015683;28;20049;-77
2021/12/03 07:03:05;;;;;;;15.70;9.40;;;-1.90;98.00;;;;;;5015652;28;20045;-78
2021/12/03 07:05:31;;;;;;;15.70;9.77;;;-1.90;98.00;;;;;;5014692;28;20034;-78
2021/12/03 07:07:57;;;;;;;18.77;11.07;;;-1.90;98.00;;;;;;5012600;28;20026;-77
2021/12/03 07:10:23;;;;;;;16.17;9.52;;;-2.00;98.00;;;;;;5002748;28;20030;-76
2021/12/03 07:12:49;;;;;;;16.25;10.13;;;-2.10;98.00;;;;;;5014640;28;20366;-78
2021/12/03 07:15:15;;;;;;;16.52;10.80;;;-2.00;98.00;;;;;;5015636;28;20050;-77
2021/12/03 07:17:41;;;;;;;18.00;10.77;;;-2.00;98.00;;;;;;5019192;28;20060;-77
2021/12/03 07:20:08;;;;;;;22.05;11.80;;;-2.00;98.00;;;;;;5000609;28;20054;-78
2021/12/03 07:22:34;;;;;;;17.35;10.75;;;-2.00;98.00;;;;;;5002728;28;20022;-78
2021/12/03 07:25:00;;;;;;;18.00;10.57;;;-2.00;98.00;;;;;;5018381;28;20055;-77
2021/12/03 07:27:29;;;;;;;16.02;9.32;;;-2.00;98.00;;;;;;5017728;28;20443;-76
2021/12/03 07:29:54;;;;;;;16.02;8.57;;;-2.10;98.00;;;;;;5018940;28;20331;-75
2021/12/03 07:32:23;;;;;;;19.05;8.07;;;-2.20;98.00;;;;;;5018988;28;20040;-77
2021/12/03 07:34:49;;;;;;;16.65;9.20;;;-2.30;98.00;;;;;;5018090;28;20349;-76
2021/12/03 07:37:15;;;;;;;15.85;8.15;;;-2.30;98.00;;;;;;5016563;28;20374;-77
2021/12/03 07:39:41;;;;;;;17.80;11.02;;;-2.30;98.00;;;;;;5007631;28;20034;-78
2021/12/03 07:42:07;;;;;;;19.20;11.07;;;-2.40;98.00;;;;;;4999199;28;20320;-78
2021/12/03 07:44:33;;;;;;;36.45;19.25;;;-2.40;98.00;;;;;;5001726;28;20027;-76
2021/12/03 07:46:59;;;;;;;15.77;9.13;;;-2.40;98.00;;;;;;4997977;28;20019;-79
2021/12/03 07:49:26;;;;;;;13.32;8.35;;;-2.30;98.00;;;;;;4997946;28;20420;-77
2021/12/03 07:51:52;;;;;;;12.38;6.53;;;-2.30;98.00;;;;;;4999073;28;20057;-77
2021/12/03 07:54:22;;;;;;;14.77;8.13;;;-2.30;98.00;;;;;;5010827;28;20326;-77
2021/12/03 07:56:48;;;;;;;16.33;8.35;;;-2.20;98.00;;;;;;5018369;28;20033;-77
2021/12/03 07:59:14;;;;;;;13.02;6.53;;;-2.20;98.00;;;;;;5018451;28;20026;-76
2021/12/03 08:01:44;;;;;;;13.02;7.03;;;-2.20;98.00;;;;;;5018419;28;20026;-76
2021/12/03 08:04:11;;;;;;;12.43;7.53;;;-2.30;98.00;;;;;;5017463;28;20029;-77
2021/12/03 08:06:40;;;;;;;11.10;7.40;;;-2.30;98.00;;;;;;5017279;28;20339;-78
2021/12/03 08:09:07;;;;;;;14.65;8.20;;;-2.30;98.00;;;;;;5017228;28;20013;-77
2021/12/03 08:11:36;;;;;;;19.23;8.68;;;-2.30;98.00;;;;;;5018264;28;20037;-77
2021/12/03 08:14:04;;;;;;;12.45;7.70;;;-2.30;98.00;;;;;;5007605;28;20037;-76
2021/12/03 08:16:30;;;;;;;12.60;7.80;;;-2.20;98.00;;;;;;4998703;28;20033;-77
2021/12/03 08:18:56;;;;;;;10.00;6.45;;;-1.70;98.00;;;;;;4998310;28;20030;-76
2021/12/03 08:21:21;;;;;;;11.85;7.60;;;-0.90;98.00;;;;;;4997465;28;20415;-78
2021/12/03 08:23:48;;;;;;;28.90;18.45;;;-0.70;98.00;;;;;;5000958;28;20031;-77
2021/12/03 08:26:15;;;;;;;13.73;8.75;;;-0.60;98.00;;;;;;4997979;28;20125;-77
2021/12/03 08:28:41;;;;;;;11.77;6.95;;;-0.70;98.00;;;;;;4998370;28;20065;-77
2021/12/03 08:31:11;;;;;;;9.85;6.60;;;-0.70;98.00;;;;;;4998233;28;20034;-78
2021/12/03 08:33:37;;;;;;;11.18;6.30;;;-0.80;98.00;;;;;;5004434;28;20026;-77
2021/12/03 08:36:03;;;;;;;9.10;5.03;;;-0.80;98.00;;;;;;5006337;28;20420;-77
2021/12/03 08:38:32;;;;;;;8.25;4.95;;;-0.90;98.00;;;;;;5013652;28;20045;-77
2021/12/03 08:40:57;;;;;;;9.57;4.63;;;-0.90;98.00;;;;;;5017144;28;20033;-77
2021/12/03 08:43:23;;;;;;;9.32;5.05;;;-0.40;98.00;;;;;;5017547;28;20036;-78
2021/12/03 08:45:53;;;;;;;8.10;5.25;;;-0.40;98.00;;;;;;5017585;28;20077;-77
2021/12/03 08:48:19;;;;;;;8.15;4.88;;;-0.30;98.00;;;;;;5016922;28;20022;-77
2021/12/03 08:51:10;;;;;;;7.60;4.35;;;-0.30;97.80;;;;;;5017580;28;20137;-78
2021/12/03 08:56:20;;;;;;;11.68;5.50;;;-0.60;98.00;;;;;;4997831;28;20114;-78
2021/12/03 08:58:46;;;;;;;8.45;5.70;;;-0.80;98.00;;;;;;4996691;28;20121;-77
2021/12/03 09:01:13;;;;;;;6.90;4.45;;;-0.70;98.00;;;;;;5016321;28;20041;-77
2021/12/03 09:03:39;;;;;;;6.10;3.80;;;-0.10;98.00;;;;;;5016705;28;20026;-78
2021/12/03 09:06:05;;;;;;;6.97;4.13;;;1.00;97.10;;;;;;5015938;28;20439;-77
2021/12/03 09:08:31;;;;;;;7.03;4.20;;;2.10;93.80;;;;;;5015723;28;20032;-79
2021/12/03 09:10:57;;;;;;;9.73;3.97;;;2.90;90.40;;;;;;5016888;28;20332;-77
2021/12/03 09:13:23;;;;;;;9.35;4.50;;;3.40;87.40;;;;;;5016413;28;20038;-78
2021/12/03 09:15:58;;;;;;;7.60;4.05;;;3.20;87.10;;;;;;5017165;28;20072;-77
2021/12/03 09:18:32;;;;;;;7.55;4.43;;;2.90;86.80;;;;;;5015165;28;20117;-78
2021/12/03 09:21:06;;;;;;;8.85;4.03;;;2.80;88.20;;;;;;5016442;28;20109;-78
2021/12/03 09:26:17;;;;;;;7.55;4.65;;;2.50;89.20;;;;;;4997676;28;20448;-78
2021/12/03 09:28:47;;;;;;;7.65;4.60;;;3.30;87.50;;;;;;4997084;28;20338;-78
2021/12/03 09:31:13;;;;;;;8.40;4.53;;;3.40;86.80;;;;;;4997251;28;20034;-78
2021/12/03 09:33:41;;;;;;;9.35;4.38;;;3.60;85.90;;;;;;4997112;28;20387;-78
2021/12/03 09:36:08;;;;;;;8.57;4.93;;;3.50;85.50;;;;;;4997283;28;20332;-78
2021/12/03 09:38:35;;;;;;;8.15;4.35;;;3.70;85.20;;;;;;4995277;28;20101;-78
2021/12/03 09:41:16;;;;;;;9.18;4.07;;;3.50;85.10;;;;;;5012135;28;20141;-77
2021/12/03 09:43:46;;;;;;;7.53;4.35;;;3.50;84.70;;;;;;5014523;28;20109;-78
2021/12/03 09:46:18;;;;;;;7.20;4.30;;;3.20;85.80;;;;;;4996869;28;20296;-78
2021/12/03 09:51:12;;;;;;;6.40;4.15;;;4.30;85.20;;;;;;4996732;28;20026;-78
2021/12/03 09:54:13;;;;;;;9.93;5.13;;;4.90;83.50;;;;;;4995549;28;20030;-78
2021/12/03 09:56:33;;;;;;;7.97;4.50;;;5.00;81.70;;;;;;4996589;28;20030;-78
2021/12/03 10:01:38;;;;;;;10.05;5.88;;;5.40;80.10;;;;;;5015632;28;20304;-79
2021/12/03 10:04:30;;;;;;;7.95;4.07;;;5.50;80.10;;;;;;5016183;28;20018;-78
2021/12/03 10:26:26;;;;;;;7.20;4.32;;;5.30;78.70;;;;;;5015831;28;20112;-76
2021/12/03 10:29:05;;;;;;;8.38;3.60;;;4.80;78.50;;;;;;5015041;28;20022;-76
2021/12/03 10:34:38;;;;;;;5.70;3.30;;;3.60;81.80;;;;;;5015950;28;20088;-77
2021/12/03 11:25:34;;;;;;;5.82;3.30;;;2.80;86.00;;;;;;5002479;28;20036;-74
2021/12/03 11:33:50;;;;;;;6.15;3.53;;;2.80;87.80;;;;;;5002346;28;20030;-75
2021/12/03 11:35:52;;;;;;;5.63;3.58;;;3.60;85.10;;;;;;4998907;28;20356;-74
2021/12/03 12:01:18;;;;;;;5.15;3.13;;;3.80;82.20;;;;;;5013877;28;20450;-74
2021/12/03 13:27:51;;;;;;;;;;;3.00;79.90;;;;;;4999669;28;20482;-75
2021/12/03 14:05:20;;;;;;;3.92;1.65;;;2.30;80.70;;;;;;4996960;28;20033;-74
2021/12/03 14:11:30;;;;;;;4.57;1.48;;;2.10;80.80;;;;;;4996409;28;20374;-75
2021/12/03 14:43:06;;;;;;;5.72;2.40;;;1.70;83.10;;;;;;5022324;28;20028;-74
2021/12/03 14:53:35;;;;;;;4.18;2.00;;;1.60;82.10;;;;;;5021188;28;20060;-74
2021/12/03 14:56:14;;;;;;;5.47;2.65;;;1.60;82.30;;;;;;5017994;28;20022;-74
2021/12/03 14:58:50;;;;;;;13.73;4.93;;;1.60;82.80;;;;;;5012843;28;20084;-74
2021/12/03 15:06:12;;;;;;;5.90;2.20;;;1.50;83.10;;;;;;5020457;28;20158;-74
2021/12/03 15:25:19;;;;;;;;;;;0.90;83.60;;;;;;5013830;28;20032;-73
2021/12/03 15:33:03;;;;;;;5.65;2.50;;;0.70;85.40;;;;;;5007069;28;20030;-74
2021/12/03 15:35:50;;;;;;;6.20;2.83;;;0.70;85.60;;;;;;5006041;28;20025;-73
2021/12/03 15:52:06;;;;;;;;;;;0.70;85.30;;;;;;4999745;28;20438;-73
2021/12/03 15:57:15;;;;;;;5.57;2.80;;;0.70;86.70;;;;;;5009688;28;20023;-74
2021/12/03 16:13:18;;;;;;;5.13;3.22;;;0.60;88.40;;;;;;5018195;28;20026;-73
2021/12/03 16:26:39;;;;;;;9.20;4.00;;;0.60;89.20;;;;;;5004431;28;20038;-74
2021/12/03 16:46:02;;;;;;;;;;;0.70;87.60;;;;;;5018345;28;20100;-73
2021/12/03 16:53:54;;;;;;;11.23;5.22;;;0.70;86.90;;;;;;5012086;28;20030;-73
2021/12/03 16:56:24;;;;;;;7.78;4.07;;;0.70;87.60;;;;;;5008527;28;20048;-73
2021/12/03 16:58:50;;;;;;;5.30;3.45;;;0.70;87.40;;;;;;5011303;28;20072;-73
2021/12/03 17:01:32;;;;;;;18.33;6.65;;;0.70;87.30;;;;;;5009835;28;20090;-73
2021/12/03 17:04:11;;;;;;;10.40;5.05;;;0.70;87.10;;;;;;5000261;28;20026;-73
2021/12/03 17:17:50;;;;;;;5.40;3.30;;;0.60;86.40;;;;;;4997672;28;20117;-74
2021/12/03 17:49:29;;;;;;;7.35;3.88;;;0.60;87.10;;;;;;5016727;28;20034;-74
2021/12/03 17:52:12;;;;;;;9.18;4.88;;;0.50;87.10;;;;;;5016283;28;20509;-74
2021/12/03 17:54:57;;;;;;;14.03;7.90;;;0.50;86.80;;;;;;5015363;28;20380;-74
2021/12/03 18:00:16;;;;;;;17.38;9.85;;;0.60;87.40;;;;;;5015711;28;20034;-74
2021/12/03 18:02:45;;;;;;;12.60;6.97;;;0.50;87.50;;;;;;5015478;28;20363;-74
2021/12/03 18:18:17;;;;;;;16.15;8.25;;;0.20;87.30;;;;;;5014984;28;20044;-75
2021/12/03 18:53:40;;;;;;;7.07;4.03;;;1.10;83.90;;;;;;5014562;28;20041;-75
2021/12/03 18:56:15;;;;;;;7.78;4.32;;;1.10;83.30;;;;;;5014873;28;20034;-75
2021/12/03 18:58:40;;;;;;;57.03;33.45;;;1.10;82.70;;;;;;4997293;28;20122;-74
2021/12/03 19:01:06;;;;;;;18.05;8.85;;;1.10;83.60;;;;;;4996109;28;20105;-74
2021/12/03 19:06:31;;;;;;;9.60;4.40;;;1.20;82.10;;;;;;4996539;28;20068;-74
2021/12/03 19:09:05;;;;;;;5.93;3.72;;;1.40;81.50;;;;;;4994900;28;20023;-74
2021/12/03 19:11:39;;;;;;;10.52;4.22;;;1.40;81.20;;;;;;4996697;28;20113;-74
2021/12/03 19:14:08;;;;;;;6.63;3.72;;;1.40;81.50;;;;;;5001578;28;20034;-74
2021/12/03 19:16:35;;;;;;;6.45;3.72;;;1.40;81.10;;;;;;5018989;28;20028;-75
2021/12/03 19:19:03;;;;;;;6.90;3.38;;;1.50;80.50;;;;;;5019162;28;20423;-75
2021/12/03 19:21:33;;;;;;;8.13;4.05;;;1.50;80.10;;;;;;5019005;28;20054;-75
2021/12/03 19:24:01;;;;;;;10.30;5.65;;;1.50;80.80;;;;;;4998537;28;20023;-75
2021/12/03 19:26:29;;;;;;;8.93;5.20;;;1.40;80.70;;;;;;4999593;28;20054;-76
2021/12/03 19:28:55;;;;;;;8.73;5.45;;;1.50;80.80;;;;;;4999508;28;20105;-76
2021/12/03 19:31:24;;;;;;;6.05;3.38;;;1.50;80.60;;;;;;5011817;28;20435;-74
2021/12/03 19:33:53;;;;;;;6.88;3.70;;;1.40;80.60;;;;;;5018995;28;20033;-75
2021/12/03 19:36:22;;;;;;;6.90;3.70;;;1.40;81.30;;;;;;5019022;28;20088;-74
2021/12/03 19:38:49;;;;;;;5.35;2.92;;;1.40;81.40;;;;;;5017973;28;20026;-74
2021/12/03 19:41:30;;;;;;;5.57;3.10;;;1.50;78.90;;;;;;5017099;28;20133;-74
2021/12/03 19:43:57;;;;;;;6.22;3.58;;;1.60;78.50;;;;;;5018971;28;20038;-75
2021/12/03 19:46:33;;;;;;;6.70;3.67;;;1.60;79.00;;;;;;5018798;28;20465;-74
2021/12/03 19:51:28;;;;;;;10.70;4.68;;;1.70;78.30;;;;;;5018698;28;20042;-75
2021/12/03 19:53:57;;;;;;;7.25;4.30;;;1.70;78.20;;;;;;5017029;28;20030;-74
2021/12/03 19:56:24;;;;;;;5.93;2.85;;;1.70;78.00;;;;;;4999000;28;20022;-74
2021/12/03 19:58:50;;;;;;;7.78;2.58;;;1.70;77.30;;;;;;5014327;28;20026;-74
2021/12/03 20:01:15;;;;;;;9.30;4.85;;;1.70;77.20;;;;;;4998794;28;20030;-74
2021/12/03 20:03:41;;;;;;;4.63;2.50;;;1.70;77.90;;;;;;4997855;28;20308;-74
2021/12/03 20:06:07;;;;;;;6.78;3.38;;;1.80;77.00;;;;;;4998966;28;20026;-75
2021/12/03 20:08:35;;;;;;;5.50;3.55;;;1.80;76.50;;;;;;4997682;28;20026;-74
2021/12/03 20:11:05;;;;;;;6.47;2.85;;;1.80;76.90;;;;;;5008684;28;20033;-74
2021/12/03 20:13:30;;;;;;;5.20;2.78;;;1.90;77.10;;;;;;5017696;28;20021;-75
2021/12/03 20:18:36;;;;;;;6.55;3.08;;;1.90;76.90;;;;;;5016640;28;20373;-75